createdAt,value
2022-12-06T00:01:30.100Z,97.70
2022-12-06T00:04:00.452Z,97.70
2022-12-06T00:06:30.965Z,97.70
2022-12-06T00:09:01.432Z,97.80
2022-12-06T00:11:31.739Z,97.80
2022-12-06T00:14:02.671Z,97.80
2022-12-06T00:16:32.934Z,97.80
2022-12-06T00:19:01.862Z,97.90
2022-12-06T00:21:32.938Z,97.90
2022-12-06T00:24:03.449Z,97.90
2022-12-06T00:26:32.438Z,97.90
2022-12-06T00:29:01.658Z,97.80
2022-12-06T00:31:32.401Z,97.80
2022-12-06T00:34:00.803Z,97.80
2022-12-06T00:36:31.497Z,97.80
2022-12-06T00:39:01.385Z,97.70
2022-12-06T00:41:30.031Z,97.80
2022-12-06T00:43:58.327Z,97.80
2022-12-06T00:46:28.672Z,97.90
2022-12-06T00:48:59.853Z,97.90
2022-12-06T00:51:30.042Z,97.90
2022-12-06T00:53:58.968Z,97.80
2022-12-06T00:56:28.352Z,97.80
2022-12-06T00:58:56.906Z,97.90
2022-12-06T01:01:27.336Z,97.90
2022-12-06T01:03:59.278Z,97.80
2022-12-06T01:06:31.564Z,97.80
2022-12-06T01:09:01.854Z,97.80
2022-12-06T01:11:31.032Z,97.90
2022-12-06T01:13:59.634Z,97.80
2022-12-06T01:16:30.883Z,97.90
2022-12-06T01:19:02.756Z,97.90
2022-12-06T01:21:31.390Z,97.90
2022-12-06T01:23:59.627Z,97.80
2022-12-06T01:26:30.003Z,97.80
2022-12-06T01:28:59.269Z,97.90
2022-12-06T01:31:33.649Z,97.90
2022-12-06T01:34:07.690Z,97.80
2022-12-06T01:36:35.973Z,97.90
2022-12-06T01:39:06.976Z,98.00
2022-12-06T01:41:35.451Z,98.00
2022-12-06T01:44:03.895Z,98.00
2022-12-06T01:46:35.118Z,98.00
2022-12-06T01:49:11.140Z,98.10
2022-12-06T01:51:41.678Z,98.10
2022-12-06T01:54:12.379Z,98.10
2022-12-06T01:56:41.508Z,98.00
2022-12-06T01:59:10.616Z,98.00
2022-12-06T02:01:40.385Z,97.90
2022-12-06T02:04:10.953Z,97.90
2022-12-06T02:06:41.195Z,97.90
2022-12-06T02:09:11.260Z,97.80
2022-12-06T02:11:39.951Z,97.80
2022-12-06T02:14:12.458Z,97.80
2022-12-06T02:16:55.504Z,97.70
2022-12-06T02:19:52.585Z,97.70
2022-12-06T02:22:28.199Z,97.60
2022-12-06T02:25:18.279Z,97.60
2022-12-06T02:28:16.391Z,97.70
2022-12-06T02:30:50.787Z,97.80
2022-12-06T02:33:26.543Z,97.70
2022-12-06T02:36:03.252Z,97.70
2022-12-06T02:38:37.196Z,97.70
2022-12-06T02:41:12.816Z,98.00
2022-12-06T02:43:46.880Z,98.00
2022-12-06T02:46:20.307Z,97.90
2022-12-06T02:48:50.068Z,97.80
2022-12-06T02:51:19.485Z,97.80
2022-12-06T02:53:52.633Z,98.00
2022-12-06T02:56:21.101Z,98.10
2022-12-06T02:58:49.333Z,97.90
2022-12-06T03:01:21.878Z,97.80
2022-12-06T03:04:08.345Z,97.80
2022-12-06T03:06:59.467Z,97.90
2022-12-06T03:09:40.851Z,97.90
2022-12-06T03:12:19.017Z,97.80
2022-12-06T03:14:54.538Z,97.70
2022-12-06T03:17:33.427Z,97.70
2022-12-06T03:20:06.467Z,97.60
2022-12-06T03:22:40.019Z,97.60
2022-12-06T03:25:10.469Z,97.60
2022-12-06T03:27:40.793Z,97.50
2022-12-06T03:30:12.453Z,97.50
2022-12-06T03:32:45.964Z,97.40
2022-12-06T03:35:18.653Z,97.40
2022-12-06T03:37:50.830Z,97.50
2022-12-06T03:40:23.381Z,97.40
2022-12-06T03:42:52.338Z,97.40
2022-12-06T03:45:23.792Z,97.40
2022-12-06T03:47:59.977Z,97.30
2022-12-06T03:50:33.788Z,97.30
2022-12-06T03:53:02.673Z,97.30
2022-12-06T03:55:31.353Z,97.40
2022-12-06T03:57:59.577Z,97.30
2022-12-06T04:00:27.864Z,97.40
2022-12-06T04:02:57.471Z,97.40
2022-12-06T04:05:25.688Z,97.40
2022-12-06T04:07:53.980Z,97.40
2022-12-06T04:10:23.015Z,97.40
2022-12-06T04:13:05.361Z,97.50
2022-12-06T04:15:36.193Z,97.40
2022-12-06T04:18:13.871Z,97.60
2022-12-06T04:21:25.530Z,97.60
2022-12-06T04:23:53.782Z,97.60
2022-12-06T04:26:23.499Z,97.70
2022-12-06T04:29:12.084Z,97.70
2022-12-06T04:31:59.067Z,97.70
2022-12-06T04:34:46.086Z,97.70
2022-12-06T04:37:31.650Z,97.70
2022-12-06T04:40:00.151Z,97.70
2022-12-06T04:42:46.058Z,97.70
2022-12-06T04:45:14.312Z,97.70
2022-12-06T04:47:42.553Z,97.70
2022-12-06T04:50:12.422Z,97.70
2022-12-06T04:52:40.747Z,97.70
2022-12-06T04:55:09.778Z,97.60
2022-12-06T04:57:38.026Z,97.60
2022-12-06T05:00:08.030Z,97.60
2022-12-06T05:02:36.281Z,97.60
2022-12-06T05:05:04.648Z,97.60
2022-12-06T05:07:34.344Z,97.60
2022-12-06T05:10:03.168Z,97.60
2022-12-06T05:12:31.576Z,97.60
2022-12-06T05:14:59.805Z,97.60
2022-12-06T05:17:28.006Z,97.50
2022-12-06T05:19:56.255Z,97.50
2022-12-06T05:22:24.528Z,97.50
2022-12-06T05:24:54.160Z,97.50
2022-12-06T05:27:22.390Z,97.50
2022-12-06T05:29:50.654Z,97.50
2022-12-06T05:32:18.979Z,97.50
2022-12-06T05:34:47.231Z,97.50
2022-12-06T05:37:15.453Z,97.50
2022-12-06T05:39:43.730Z,97.50
2022-12-06T05:42:20.432Z,97.50
2022-12-06T05:44:50.584Z,97.50
2022-12-06T05:47:18.835Z,97.40
2022-12-06T05:49:47.123Z,97.40
2022-12-06T05:52:15.633Z,97.40
2022-12-06T05:54:43.917Z,97.40
2022-12-06T05:57:13.692Z,97.40
2022-12-06T05:59:41.954Z,97.40
2022-12-06T06:02:10.400Z,97.40
2022-12-06T06:04:38.826Z,97.40
2022-12-06T06:07:07.015Z,97.40
2022-12-06T06:09:35.244Z,97.50
2022-12-06T06:12:06.841Z,97.40
2022-12-06T06:14:39.256Z,97.40
2022-12-06T06:17:07.665Z,97.40
2022-12-06T06:19:35.955Z,97.40
2022-12-06T06:22:04.227Z,97.50
2022-12-06T06:24:36.857Z,97.40
2022-12-06T06:27:05.628Z,97.40
2022-12-06T06:29:34.137Z,97.60
2022-12-06T06:32:03.881Z,97.60
2022-12-06T06:34:32.216Z,97.60
2022-12-06T06:37:00.527Z,97.50
2022-12-06T06:39:28.750Z,97.40
2022-12-06T06:41:56.978Z,97.80
2022-12-06T06:44:25.257Z,97.70
2022-12-06T06:46:53.535Z,97.70
2022-12-06T06:49:23.170Z,97.60
2022-12-06T06:51:51.414Z,97.60
2022-12-06T06:54:19.657Z,97.50
2022-12-06T06:56:47.874Z,97.50
2022-12-06T06:59:16.262Z,97.50
2022-12-06T07:01:45.043Z,97.50
2022-12-06T07:04:13.421Z,97.50
2022-12-06T07:06:43.344Z,97.50
2022-12-06T07:09:11.999Z,97.40
2022-12-06T07:11:40.422Z,97.40
2022-12-06T07:14:08.682Z,97.50
2022-12-06T07:16:37.241Z,97.40
2022-12-06T07:19:09.033Z,97.40
2022-12-06T07:21:37.687Z,97.40
2022-12-06T07:24:08.144Z,97.30
2022-12-06T07:26:36.617Z,97.30
2022-12-06T07:29:04.940Z,97.30
2022-12-06T07:31:33.922Z,97.30
2022-12-06T07:34:03.924Z,97.30
2022-12-06T07:36:33.611Z,97.20
2022-12-06T07:39:02.342Z,97.10
2022-12-06T07:41:49.411Z,97.10
2022-12-06T07:44:36.304Z,97.30
2022-12-06T07:47:05.114Z,97.30
2022-12-06T07:49:33.368Z,97.30
2022-12-06T07:52:02.428Z,97.30
2022-12-06T07:54:30.714Z,97.30
2022-12-06T07:57:00.355Z,97.30
2022-12-06T07:59:28.846Z,97.40
2022-12-06T08:01:57.126Z,97.80
2022-12-06T08:04:25.525Z,97.40
2022-12-06T08:06:54.234Z,97.50
2022-12-06T08:09:22.677Z,97.40
2022-12-06T08:11:51.008Z,97.40
2022-12-06T08:14:20.638Z,97.40
2022-12-06T08:16:48.912Z,97.40
2022-12-06T08:19:17.182Z,97.40
2022-12-06T08:21:45.617Z,97.30
2022-12-06T08:24:13.914Z,97.30
2022-12-06T08:26:42.177Z,97.30
2022-12-06T08:29:10.432Z,97.30
2022-12-06T08:31:40.176Z,97.30
2022-12-06T08:34:08.941Z,97.30
2022-12-06T08:36:40.224Z,97.30
2022-12-06T08:39:11.155Z,97.40
2022-12-06T08:41:58.356Z,97.40
2022-12-06T08:44:28.824Z,97.40
2022-12-06T08:46:59.846Z,97.30
2022-12-06T08:49:29.413Z,97.30
2022-12-06T08:51:58.984Z,97.20
2022-12-06T08:54:27.641Z,97.20
2022-12-06T08:56:56.035Z,97.20
2022-12-06T08:59:24.968Z,97.20
2022-12-06T09:01:53.372Z,97.20
2022-12-06T09:04:23.556Z,97.20
2022-12-06T09:06:52.232Z,97.20
2022-12-06T09:09:20.689Z,97.20
2022-12-06T09:11:50.922Z,97.30
2022-12-06T09:14:22.198Z,97.20
2022-12-06T09:16:51.761Z,97.20
2022-12-06T09:19:20.895Z,97.20
2022-12-06T09:21:50.574Z,97.30
2022-12-06T09:24:19.822Z,97.30
2022-12-06T09:26:48.755Z,97.30
2022-12-06T09:29:18.705Z,97.30
2022-12-06T09:31:47.238Z,97.40
2022-12-06T09:34:17.036Z,97.40
2022-12-06T09:36:49.300Z,97.40
2022-12-06T09:39:22.556Z,97.40
2022-12-06T09:42:41.747Z,97.40
2022-12-06T09:45:23.875Z,97.40
2022-12-06T09:48:10.960Z,97.40
2022-12-06T09:50:46.511Z,97.40
2022-12-06T09:53:22.690Z,97.40
2022-12-06T09:56:07.383Z,97.40
2022-12-06T09:58:50.500Z,97.50
2022-12-06T10:01:39.374Z,97.40
2022-12-06T10:04:27.401Z,97.40
2022-12-06T10:07:04.774Z,97.40
2022-12-06T10:09:44.742Z,97.40
2022-12-06T10:12:28.554Z,97.80
2022-12-06T10:15:17.026Z,97.80
2022-12-06T10:17:59.472Z,97.70
2022-12-06T10:20:34.473Z,97.70
2022-12-06T10:23:14.732Z,97.60
2022-12-06T10:25:48.278Z,97.60
2022-12-06T10:28:27.711Z,97.60
2022-12-06T10:30:59.405Z,97.60
2022-12-06T10:33:37.211Z,97.60
2022-12-06T10:36:09.080Z,97.60
2022-12-06T10:38:43.114Z,97.60
2022-12-06T10:41:19.466Z,97.60
2022-12-06T10:43:55.666Z,97.60
2022-12-06T10:46:49.996Z,97.50
2022-12-06T10:49:24.990Z,97.40
2022-12-06T10:52:00.155Z,97.40
2022-12-06T10:54:34.419Z,97.40
2022-12-06T10:57:06.417Z,97.30
2022-12-06T10:59:41.314Z,97.30
2022-12-06T11:02:24.514Z,97.40
2022-12-06T11:04:54.251Z,97.40
2022-12-06T11:07:26.564Z,97.30
2022-12-06T11:09:57.710Z,97.10
2022-12-06T11:12:33.748Z,97.10
2022-12-06T11:15:13.599Z,97.30
2022-12-06T11:17:47.879Z,97.30
2022-12-06T11:20:22.899Z,97.20
2022-12-06T11:23:06.293Z,97.10
2022-12-06T11:25:52.785Z,97.10
2022-12-06T11:28:34.684Z,97.10
2022-12-06T11:31:12.638Z,97.00
2022-12-06T11:33:41.148Z,97.00
2022-12-06T11:36:10.576Z,96.90
2022-12-06T11:38:42.667Z,96.80
2022-12-06T11:41:18.789Z,96.90
2022-12-06T11:43:47.381Z,96.70
2022-12-06T11:46:17.500Z,96.70
2022-12-06T11:48:46.167Z,96.70
2022-12-06T11:51:18.991Z,96.70
2022-12-06T11:53:58.905Z,96.80
2022-12-06T11:56:29.987Z,96.80
2022-12-06T11:59:09.151Z,96.80
2022-12-06T12:01:44.587Z,96.80
2022-12-06T12:04:40.064Z,96.80
2022-12-06T12:07:16.393Z,96.80
2022-12-06T12:09:57.490Z,96.80
2022-12-06T12:12:49.701Z,96.80
2022-12-06T12:15:19.658Z,96.80
2022-12-06T12:18:02.219Z,96.80
2022-12-06T12:20:37.445Z,96.80
2022-12-06T12:23:09.015Z,96.80
2022-12-06T12:25:42.327Z,96.70
2022-12-06T12:28:30.689Z,96.80
2022-12-06T12:31:06.156Z,96.70
2022-12-06T12:33:36.220Z,96.60
2022-12-06T12:36:21.864Z,96.70
2022-12-06T12:38:57.480Z,96.60
2022-12-06T12:41:32.727Z,96.60
2022-12-06T12:46:57.285Z,96.80
2022-12-06T12:49:30.643Z,96.80
2022-12-06T12:51:59.681Z,96.80
2022-12-06T12:54:31.337Z,96.80
2022-12-06T12:57:01.154Z,96.90
2022-12-06T12:59:33.603Z,97.10
2022-12-06T13:02:06.879Z,97.10
2022-12-06T13:04:44.967Z,97.10
2022-12-06T13:07:19.486Z,97.10
2022-12-06T13:09:54.594Z,97.10
2022-12-06T13:12:30.938Z,97.20
2022-12-06T13:15:04.002Z,97.20
2022-12-06T13:17:35.436Z,97.20
2022-12-06T13:20:06.114Z,97.30
2022-12-06T13:22:45.172Z,97.60
2022-12-06T13:25:13.523Z,97.60
2022-12-06T13:27:47.603Z,97.50
2022-12-06T13:30:20.803Z,97.50
2022-12-06T13:32:52.948Z,97.50
2022-12-06T13:35:29.399Z,97.50
2022-12-06T13:38:01.376Z,97.50
2022-12-06T13:40:46.944Z,97.50
2022-12-06T13:43:54.596Z,97.50
2022-12-06T13:46:26.469Z,97.80
2022-12-06T13:48:56.186Z,97.80
2022-12-06T13:51:46.042Z,97.70
2022-12-06T13:54:41.465Z,97.70
2022-12-06T13:57:32.913Z,97.70
2022-12-06T14:00:01.677Z,97.80
2022-12-06T14:02:54.429Z,97.80
2022-12-06T14:06:14.043Z,97.80
2022-12-06T14:08:54.208Z,97.80
2022-12-06T14:11:25.235Z,97.80
2022-12-06T14:14:08.803Z,97.80
2022-12-06T14:16:40.709Z,97.80
2022-12-06T14:19:18.865Z,97.80
2022-12-06T14:21:55.054Z,97.90
2022-12-06T14:24:39.569Z,97.80
2022-12-06T14:27:13.073Z,97.80
2022-12-06T14:29:42.407Z,97.80
2022-12-06T14:32:12.267Z,97.80
2022-12-06T14:34:43.300Z,97.90
2022-12-06T14:37:24.097Z,97.90
2022-12-06T14:39:54.733Z,97.80
2022-12-06T14:42:42.850Z,98.10
2022-12-06T14:45:16.605Z,98.10
2022-12-06T14:47:48.966Z,98.10
2022-12-06T14:50:35.323Z,97.90
2022-12-06T14:53:06.555Z,97.80
2022-12-06T14:55:38.347Z,97.80
2022-12-06T14:58:17.999Z,97.70
2022-12-06T15:00:54.673Z,97.70
2022-12-06T15:03:32.621Z,97.60
2022-12-06T15:06:14.012Z,97.80
2022-12-06T15:08:55.659Z,97.80
2022-12-06T15:11:51.506Z,97.80
2022-12-06T15:14:33.618Z,97.70
2022-12-06T15:17:04.400Z,97.70
2022-12-06T15:19:34.908Z,97.60
2022-12-06T15:56:50.488Z,97.60
2022-12-06T15:59:19.600Z,97.20
2022-12-06T16:01:52.041Z,97.20
2022-12-06T16:19:56.123Z,97.60
2022-12-06T16:22:41.226Z,97.20
2022-12-06T16:25:26.625Z,97.20
2022-12-06T16:28:03.229Z,97.10
2022-12-06T16:30:39.462Z,97.20
2022-12-06T16:33:07.995Z,97.20
2022-12-06T16:35:37.759Z,97.10
2022-12-06T16:38:08.692Z,97.10
2022-12-06T16:40:37.301Z,97.30
2022-12-06T16:43:05.584Z,97.10
2022-12-06T16:45:37.895Z,97.00
2022-12-06T16:48:07.029Z,97.00
2022-12-06T16:50:57.066Z,97.00
2022-12-06T16:53:41.064Z,96.90
2022-12-06T16:56:49.659Z,97.00
2022-12-06T16:59:34.515Z,97.00
2022-12-06T17:02:24.725Z,96.80
2022-12-06T17:05:56.199Z,96.80
2022-12-06T17:09:30.428Z,96.80
2022-12-06T17:12:13.358Z,96.70
2022-12-06T17:15:39.956Z,96.70
2022-12-06T17:18:19.569Z,96.60
2022-12-06T17:21:41.552Z,96.60
2022-12-06T17:28:11.387Z,96.60
2022-12-06T17:31:12.316Z,96.90
2022-12-06T17:33:40.868Z,96.50
2022-12-06T18:06:21.509Z,96.80
2022-12-06T18:58:38.486Z,96.30
2022-12-06T19:58:06.568Z,96.70
2022-12-06T20:00:34.867Z,96.70
2022-12-06T20:03:03.136Z,96.60
2022-12-06T20:05:34.320Z,96.60
2022-12-06T20:08:02.623Z,96.60
2022-12-06T20:10:31.022Z,96.60
2022-12-06T20:12:59.345Z,96.50
2022-12-06T20:15:28.994Z,96.50
2022-12-06T20:17:57.460Z,96.50
2022-12-06T20:20:25.878Z,96.50
2022-12-06T20:22:54.994Z,96.50
2022-12-06T20:25:23.827Z,96.60
2022-12-06T20:27:52.101Z,96.50
2022-12-06T20:30:21.457Z,96.50
2022-12-06T20:32:53.646Z,96.50
2022-12-06T20:35:21.955Z,96.40
2022-12-06T20:37:51.993Z,96.30
2022-12-06T20:40:20.609Z,96.30
2022-12-06T20:42:49.675Z,96.30
2022-12-06T20:45:20.428Z,96.40
2022-12-06T20:47:52.359Z,96.40
2022-12-06T20:50:22.274Z,96.40
2022-12-06T20:52:50.561Z,96.30
2022-12-06T20:55:19.101Z,96.30
2022-12-06T20:57:47.396Z,96.30
2022-12-06T21:00:16.972Z,96.60
2022-12-06T21:02:48.361Z,96.60
2022-12-06T21:05:19.116Z,96.50
2022-12-06T21:07:53.342Z,96.50
2022-12-06T21:10:21.630Z,96.50
2022-12-06T21:12:49.920Z,96.40
2022-12-06T21:15:18.309Z,96.40
2022-12-06T21:17:46.537Z,96.40
2022-12-06T21:20:14.820Z,96.40
2022-12-06T21:22:44.711Z,96.40
2022-12-06T21:25:13.067Z,96.50
2022-12-06T21:27:41.506Z,96.50
2022-12-06T21:30:11.063Z,96.50
2022-12-06T21:32:45.540Z,96.50
2022-12-06T21:35:15.420Z,96.40
2022-12-06T21:38:25.506Z,96.40
2022-12-06T21:41:43.467Z,96.40
2022-12-06T21:44:28.296Z,96.40
2022-12-06T21:46:56.934Z,96.40
2022-12-06T21:49:25.434Z,96.30
2022-12-06T21:52:00.330Z,96.60
2022-12-06T21:54:32.969Z,96.60
2022-12-06T21:57:01.387Z,96.50
2022-12-06T21:59:29.784Z,96.50
2022-12-06T22:02:00.936Z,96.50
2022-12-06T22:04:29.469Z,96.50
2022-12-06T22:06:57.791Z,96.40
2022-12-06T22:09:26.133Z,96.40
2022-12-06T22:11:56.094Z,96.40
2022-12-06T22:14:24.934Z,96.30
2022-12-06T22:16:53.207Z,96.30
2022-12-06T22:19:21.429Z,96.30
2022-12-06T22:21:49.702Z,96.20
2022-12-06T22:24:18.085Z,96.30
2022-12-06T22:26:49.120Z,96.20
2022-12-06T22:29:29.643Z,96.20
2022-12-06T22:31:58.032Z,96.20
2022-12-06T22:34:26.438Z,96.20
2022-12-06T22:37:14.523Z,96.20
2022-12-06T22:39:42.971Z,96.20
2022-12-06T22:42:11.285Z,96.20
2022-12-06T22:44:40.949Z,96.10
2022-12-06T22:47:11.659Z,96.20
2022-12-06T22:49:39.933Z,96.10
2022-12-06T22:52:08.201Z,96.10
2022-12-06T22:54:38.835Z,96.30
2022-12-06T22:57:12.355Z,96.20
2022-12-06T22:59:42.892Z,96.20
2022-12-06T23:02:25.953Z,96.10
2022-12-06T23:04:56.190Z,96.10
2022-12-06T23:07:33.096Z,96.10
2022-12-06T23:10:02.160Z,96.00
2022-12-06T23:12:36.179Z,96.00
2022-12-06T23:15:12.558Z,96.00
2022-12-06T23:17:41.052Z,96.00
2022-12-06T23:20:10.710Z,95.90
2022-12-06T23:22:39.808Z,95.90
2022-12-06T23:25:50.117Z,95.90
2022-12-06T23:28:24.111Z,95.80
2022-12-06T23:31:07.027Z,95.80
2022-12-06T23:33:44.430Z,95.80
2022-12-06T23:36:18.492Z,95.80
2022-12-06T23:39:11.978Z,95.80
2022-12-06T23:41:40.282Z,95.70
2022-12-06T23:44:09.597Z,95.90
2022-12-06T23:46:45.945Z,95.90
2022-12-06T23:49:17.846Z,95.90
2022-12-06T23:51:46.819Z,95.80
2022-12-06T23:54:16.810Z,95.80
2022-12-06T23:56:45.651Z,95.80
2022-12-06T23:59:15.952Z,95.80
